Time;durP1;ratioP1;P1;durP2;ratioP2;P2;SDS_P1;SDS_P2;PMS_P1;PMS_P2;Temp;Humidity;BMP_temperature;BMP_pressure;BME280_temperature;BME280_humidity;BME280_pressure;Samples;Min_cycle;Max_cycle;Signal;HPM_P1;HPM_P2
2022/10/15 00:01:24;;;;;;;95.85;41.55;;;12.00;99.90;;;;;;5057905;28;20053;-73
2022/10/15 00:03:50;;;;;;;89.65;40.33;;;12.10;99.90;;;;;;5057244;28;20044;-73
2022/10/15 00:06:18;;;;;;;77.38;39.88;;;12.00;99.90;;;;;;5057971;28;20416;-73
2022/10/15 00:08:45;;;;;;;71.10;37.75;;;12.20;99.90;;;;;;5058249;28;20048;-72
2022/10/15 00:11:14;;;;;;;90.07;39.67;;;12.00;99.90;;;;;;5057586;28;20049;-74
2022/10/15 00:13:40;;;;;;;87.20;40.28;;;12.00;99.90;;;;;;5057615;28;20037;-72
2022/10/15 00:16:08;;;;;;;77.30;40.28;;;12.00;99.90;;;;;;5039921;28;20120;-75
2022/10/15 00:18:34;;;;;;;61.88;37.22;;;12.00;99.90;;;;;;5057237;28;20056;-72
2022/10/15 00:21:00;;;;;;;82.65;41.58;;;12.00;99.90;;;;;;5057008;28;20445;-72
2022/10/15 00:23:25;;;;;;;79.95;41.38;;;12.10;99.90;;;;;;5040318;28;20049;-73
2022/10/15 00:26:00;;;;;;;65.22;38.03;;;12.10;99.90;;;;;;5039749;28;20037;-73
2022/10/15 00:28:26;;;;;;;75.32;40.63;;;12.10;99.90;;;;;;5057155;28;20127;-75
2022/10/15 00:30:51;;;;;;;97.10;44.53;;;12.10;99.90;;;;;;5039466;28;20073;-71
2022/10/15 00:33:17;;;;;;;97.50;43.92;;;12.10;99.90;;;;;;5057153;28;20091;-72
2022/10/15 00:35:42;;;;;;;80.93;42.42;;;12.00;99.90;;;;;;5056713;28;20131;-74
2022/10/15 00:38:08;;;;;;;70.78;39.30;;;12.00;99.90;;;;;;5057188;28;20464;-71
2022/10/15 00:40:33;;;;;;;90.85;44.05;;;12.00;99.90;;;;;;5056426;28;20122;-74
2022/10/15 00:42:59;;;;;;;72.50;42.45;;;12.00;99.90;;;;;;5057369;28;20041;-74
2022/10/15 00:45:25;;;;;;;94.40;44.03;;;12.00;99.90;;;;;;5039482;28;20151;-74
2022/10/15 00:47:52;;;;;;;95.95;41.78;;;12.00;99.90;;;;;;5056786;28;20091;-74
2022/10/15 00:50:25;;;;;;;77.13;42.65;;;12.00;99.90;;;;;;5056551;28;20339;-72
2022/10/15 00:52:56;;;;;;;;;;;12.00;99.90;;;;;;5057198;28;20110;-73
2022/10/15 00:55:42;;;;;;;72.75;40.35;;;12.00;99.90;;;;;;5056754;28;19959;-74
2022/10/15 00:58:14;;;;;;;85.25;41.97;;;12.10;99.90;;;;;;5056268;28;20381;-72
2022/10/15 01:00:40;;;;;;;95.65;45.72;;;12.00;99.90;;;;;;5056666;28;20084;-75
2022/10/15 01:03:07;;;;;;;71.38;38.40;;;12.00;99.90;;;;;;5038888;28;20179;-72
2022/10/15 01:05:34;;;;;;;80.07;39.35;;;12.00;99.90;;;;;;5056299;28;20064;-72
2022/10/15 01:07:59;;;;;;;69.97;38.13;;;12.00;99.90;;;;;;5056595;28;20048;-73
2022/10/15 01:10:35;;;;;;;84.72;45.38;;;12.00;99.90;;;;;;5056491;28;20099;-74
2022/10/15 01:13:28;;;;;;;79.72;38.58;;;12.00;99.90;;;;;;5056502;28;20048;-72
2022/10/15 01:16:12;;;;;;;78.75;42.67;;;12.00;99.90;;;;;;5056417;28;20110;-74
2022/10/15 01:18:55;;;;;;;70.82;38.25;;;12.00;99.90;;;;;;5056254;28;20123;-75
2022/10/15 01:21:43;;;;;;;116.15;46.50;;;12.00;99.90;;;;;;5055934;28;20366;-73
2022/10/15 01:24:36;;;;;;;112.45;47.30;;;12.00;99.90;;;;;;5056467;28;20049;-73
2022/10/15 01:27:14;;;;;;;76.43;41.50;;;12.00;99.90;;;;;;5056180;28;20049;-73
2022/10/15 01:29:58;;;;;;;76.90;43.63;;;12.00;99.90;;;;;;5056080;28;20114;-73
2022/10/15 01:32:28;;;;;;;81.22;41.70;;;12.00;99.90;;;;;;5056495;28;20389;-74
2022/10/15 01:35:07;;;;;;;90.63;43.42;;;12.00;99.90;;;;;;5055134;28;20474;-73
2022/10/15 01:37:37;;;;;;;127.43;47.45;;;12.00;99.90;;;;;;5056201;28;20107;-73
2022/10/15 01:40:16;;;;;;;76.68;42.05;;;12.00;99.90;;;;;;5055777;28;20045;-72
2022/10/15 01:42:59;;;;;;;72.70;37.35;;;12.00;99.90;;;;;;5055636;28;20547;-73
2022/10/15 01:45:39;;;;;;;72.10;40.15;;;12.00;99.90;;;;;;5056020;28;20049;-72
2022/10/15 01:48:09;;;;;;;81.13;40.75;;;12.00;99.90;;;;;;5038543;28;20124;-75
2022/10/15 01:50:37;;;;;;;74.95;41.80;;;12.10;99.90;;;;;;5055982;28;20071;-73
2022/10/15 01:53:04;;;;;;;85.32;42.95;;;11.90;99.90;;;;;;5054910;28;20055;-73
2022/10/15 01:55:31;;;;;;;78.82;41.53;;;11.90;99.90;;;;;;5055520;28;20041;-73
2022/10/15 01:57:58;;;;;;;71.47;39.55;;;12.00;99.90;;;;;;5055974;28;20044;-75
2022/10/15 02:00:24;;;;;;;59.20;36.67;;;12.00;99.90;;;;;;5055579;28;20485;-73
2022/10/15 02:02:50;;;;;;;86.78;42.90;;;12.00;99.90;;;;;;5055185;28;20041;-74
2022/10/15 02:05:21;;;;;;;82.32;38.97;;;12.00;99.90;;;;;;5055531;28;20416;-75
2022/10/15 02:07:54;;;;;;;91.95;43.80;;;12.00;99.90;;;;;;5038240;28;20041;-73
2022/10/15 02:10:35;;;;;;;69.70;38.63;;;12.00;99.90;;;;;;5055667;28;20053;-73
2022/10/15 02:13:32;;;;;;;92.30;46.30;;;12.00;99.90;;;;;;5054955;28;20045;-73
2022/10/15 02:16:24;;;;;;;74.93;41.08;;;12.00;99.90;;;;;;5055210;28;20110;-73
2022/10/15 02:19:02;;;;;;;87.22;41.80;;;12.00;99.90;;;;;;5055374;28;20045;-71
2022/10/15 02:21:36;;;;;;;107.88;45.67;;;12.10;99.90;;;;;;5055038;28;20465;-73
2022/10/15 02:24:16;;;;;;;81.60;44.67;;;12.00;99.90;;;;;;5055021;28;20408;-72
2022/10/15 02:26:43;;;;;;;79.15;41.65;;;12.10;99.90;;;;;;5055323;28;20135;-73
2022/10/15 02:29:13;;;;;;;83.38;40.78;;;12.00;99.90;;;;;;5055274;28;20120;-73
2022/10/15 02:31:41;;;;;;;74.53;41.10;;;12.00;99.90;;;;;;5055886;28;20049;-74
2022/10/15 02:34:12;;;;;;;85.68;43.55;;;12.00;99.90;;;;;;5038438;28;20052;-74
2022/10/15 02:36:42;;;;;;;82.47;41.20;;;12.00;99.90;;;;;;5055259;28;20122;-73
2022/10/15 02:39:11;;;;;;;77.32;39.38;;;12.00;99.90;;;;;;5054894;28;20048;-72
2022/10/15 02:41:38;;;;;;;67.82;38.10;;;12.00;99.90;;;;;;5054900;28;20041;-72
2022/10/15 02:44:04;;;;;;;74.78;42.25;;;12.00;99.90;;;;;;5054943;28;20049;-72
2022/10/15 02:46:30;;;;;;;77.50;40.33;;;12.00;99.90;;;;;;5055202;28;20045;-73
2022/10/15 02:48:55;;;;;;;70.50;39.40;;;12.00;99.90;;;;;;5055516;28;20040;-73
2022/10/15 02:51:21;;;;;;;67.85;39.70;;;12.10;99.90;;;;;;5037606;28;20055;-73
2022/10/15 02:53:46;;;;;;;77.13;40.72;;;12.00;99.90;;;;;;5054967;28;20338;-72
2022/10/15 02:56:12;;;;;;;68.80;39.05;;;12.00;99.90;;;;;;5054754;28;20033;-74
2022/10/15 02:58:37;;;;;;;87.65;43.05;;;12.00;99.90;;;;;;5054954;28;20049;-72
2022/10/15 03:01:03;;;;;;;86.55;41.30;;;12.10;99.90;;;;;;5054576;28;20319;-73
2022/10/15 03:03:29;;;;;;;81.07;41.10;;;12.10;99.90;;;;;;5054999;28;20045;-72
2022/10/15 03:05:55;;;;;;;70.55;38.92;;;12.10;99.90;;;;;;5058951;28;20064;-72
2022/10/15 03:08:20;;;;;;;71.90;39.53;;;12.10;99.90;;;;;;5058964;28;20392;-74
2022/10/15 03:10:46;;;;;;;54.63;34.88;;;12.10;99.90;;;;;;5040986;28;20071;-72
2022/10/15 03:13:12;;;;;;;63.65;37.08;;;12.10;99.90;;;;;;5057843;28;20123;-73
2022/10/15 03:15:38;;;;;;;62.17;36.97;;;12.00;99.90;;;;;;5058257;28;20087;-73
2022/10/15 03:18:04;;;;;;;68.13;39.63;;;12.00;99.90;;;;;;5058993;28;20049;-74
2022/10/15 03:20:29;;;;;;;61.60;37.00;;;12.00;99.90;;;;;;5058710;28;20037;-72
2022/10/15 03:22:55;;;;;;;60.70;35.17;;;12.00;99.90;;;;;;5058563;28;20053;-72
2022/10/15 03:25:21;;;;;;;62.55;35.60;;;12.00;99.90;;;;;;5058652;28;20076;-73
2022/10/15 03:27:47;;;;;;;58.15;36.10;;;12.00;99.90;;;;;;5058142;28;20037;-72
2022/10/15 03:30:13;;;;;;;59.65;35.83;;;12.00;99.90;;;;;;5057919;28;20120;-73
2022/10/15 03:32:38;;;;;;;72.82;37.58;;;11.90;99.90;;;;;;5041237;28;20175;-72
2022/10/15 03:35:04;;;;;;;62.17;35.00;;;11.90;99.90;;;;;;5040881;28;20114;-72
2022/10/15 03:37:30;;;;;;;50.22;32.75;;;11.90;99.90;;;;;;5058909;28;20077;-72
2022/10/15 03:39:56;;;;;;;57.95;36.75;;;11.90;99.90;;;;;;5040617;28;20473;-72
2022/10/15 03:42:21;;;;;;;58.17;34.42;;;11.90;99.90;;;;;;5057662;28;20132;-72
2022/10/15 03:44:47;;;;;;;55.83;33.38;;;12.00;99.90;;;;;;5039895;28;20064;-73
2022/10/15 03:47:13;;;;;;;55.33;34.03;;;11.90;99.90;;;;;;5058356;28;20135;-73
2022/10/15 03:49:38;;;;;;;57.78;35.17;;;12.00;99.90;;;;;;5041045;28;20045;-73
2022/10/15 03:52:04;;;;;;;59.40;33.28;;;12.00;99.90;;;;;;5039948;28;20049;-73
2022/10/15 03:54:29;;;;;;;56.22;32.28;;;12.00;99.90;;;;;;5058753;28;20155;-71
2022/10/15 03:56:55;;;;;;;50.97;33.28;;;12.00;99.90;;;;;;5047162;28;20045;-73
2022/10/15 03:59:20;;;;;;;61.10;35.22;;;12.00;99.90;;;;;;5058314;28;20409;-73
2022/10/15 04:01:46;;;;;;;58.70;32.28;;;12.00;99.90;;;;;;5057631;28;20115;-73
2022/10/15 04:04:12;;;;;;;52.28;32.45;;;12.00;99.90;;;;;;5057516;28;20056;-73
2022/10/15 04:06:38;;;;;;;53.65;33.10;;;12.00;99.90;;;;;;5057608;28;20041;-74
2022/10/15 04:09:04;;;;;;;62.33;32.05;;;12.00;99.90;;;;;;5057747;28;20431;-72
2022/10/15 04:11:29;;;;;;;58.92;34.70;;;12.00;99.90;;;;;;5057261;28;20044;-72
2022/10/15 04:13:55;;;;;;;46.40;29.42;;;11.90;99.90;;;;;;5057632;28;20098;-73
2022/10/15 04:16:20;;;;;;;62.05;32.17;;;11.90;99.90;;;;;;5039666;28;20056;-72
2022/10/15 04:18:46;;;;;;;70.60;35.25;;;11.90;99.90;;;;;;5057926;28;20405;-73
2022/10/15 04:21:12;;;;;;;54.33;34.83;;;11.90;99.90;;;;;;5040015;28;20037;-73
2022/10/15 04:23:38;;;;;;;66.70;35.58;;;11.90;99.90;;;;;;5057670;28;20052;-73
2022/10/15 04:26:03;;;;;;;71.60;36.25;;;11.90;99.90;;;;;;5057058;28;20044;-72
2022/10/15 04:28:29;;;;;;;65.50;35.88;;;11.90;99.90;;;;;;5057211;28;20045;-73
2022/10/15 04:30:57;;;;;;;61.17;34.75;;;11.90;99.90;;;;;;5057514;28;20041;-72
2022/10/15 04:33:23;;;;;;;56.28;33.20;;;11.80;99.90;;;;;;5039927;28;20150;-73
2022/10/15 04:36:01;;;;;;;68.30;34.17;;;11.80;99.90;;;;;;5057329;28;20057;-73
2022/10/15 04:38:27;;;;;;;68.68;37.17;;;11.80;99.90;;;;;;5057403;28;20044;-72
2022/10/15 04:41:00;;;;;;;78.15;36.42;;;11.80;99.90;;;;;;5056693;28;20335;-73
2022/10/15 04:43:26;;;;;;;64.28;36.58;;;11.80;99.90;;;;;;5057287;28;20095;-73
2022/10/15 04:45:55;;;;;;;59.15;32.22;;;11.80;99.90;;;;;;5057138;28;20103;-73
2022/10/15 04:48:21;;;;;;;68.65;37.08;;;11.80;99.90;;;;;;5057225;28;20060;-74
2022/10/15 04:50:46;;;;;;;73.82;38.05;;;11.70;99.90;;;;;;5057313;28;20045;-72
2022/10/15 04:53:12;;;;;;;60.80;35.72;;;11.70;99.90;;;;;;5056808;28;20037;-74
2022/10/15 04:55:37;;;;;;;64.47;34.83;;;11.70;99.90;;;;;;5056567;28;20454;-72
2022/10/15 04:58:03;;;;;;;66.97;36.67;;;11.70;99.90;;;;;;5056550;28;20362;-72
2022/10/15 05:00:28;;;;;;;81.63;40.78;;;11.70;99.90;;;;;;5056684;28;20130;-72
2022/10/15 05:02:54;;;;;;;71.20;37.60;;;11.70;99.90;;;;;;5056798;28;20052;-73
2022/10/15 05:05:19;;;;;;;60.08;35.58;;;11.80;99.90;;;;;;5056692;28;20045;-73
2022/10/15 05:07:45;;;;;;;62.25;35.80;;;12.10;99.90;;;;;;5056722;28;20044;-73
2022/10/15 05:10:11;;;;;;;85.32;42.00;;;11.70;99.90;;;;;;5056743;28;20194;-72
2022/10/15 05:12:36;;;;;;;63.97;34.40;;;11.70;99.90;;;;;;5039015;28;20377;-74
2022/10/15 05:15:02;;;;;;;62.15;34.85;;;11.70;99.90;;;;;;5056306;28;20049;-73
2022/10/15 05:17:29;;;;;;;99.63;42.53;;;11.70;99.90;;;;;;5039065;28;20048;-73
2022/10/15 05:19:54;;;;;;;75.25;38.08;;;11.70;99.90;;;;;;5056581;28;20036;-73
2022/10/15 05:22:20;;;;;;;100.38;41.22;;;11.60;99.90;;;;;;5057028;28;20051;-72
2022/10/15 05:24:46;;;;;;;77.97;38.35;;;11.60;99.90;;;;;;5056227;28;20048;-73
2022/10/15 05:27:11;;;;;;;80.43;39.97;;;11.80;99.90;;;;;;5038614;28;20045;-73
2022/10/15 05:29:38;;;;;;;78.65;40.80;;;11.60;99.90;;;;;;5055407;28;20060;-72
2022/10/15 05:32:04;;;;;;;71.22;37.78;;;11.60;99.90;;;;;;5056418;28;20044;-72
2022/10/15 05:34:34;;;;;;;107.22;44.28;;;11.70;99.90;;;;;;5056390;28;20044;-71
2022/10/15 05:36:59;;;;;;;89.40;41.92;;;11.60;99.90;;;;;;5038328;28;20476;-73
2022/10/15 05:39:25;;;;;;;79.15;38.67;;;11.60;99.90;;;;;;5055901;28;20062;-72
2022/10/15 05:41:52;;;;;;;100.13;42.60;;;11.50;99.90;;;;;;5052183;28;20071;-73
2022/10/15 05:44:17;;;;;;;91.63;43.67;;;11.50;99.90;;;;;;5055684;28;20056;-72
2022/10/15 05:46:43;;;;;;;108.53;42.00;;;11.50;99.90;;;;;;5054846;28;20183;-72
2022/10/15 05:49:08;;;;;;;81.45;40.30;;;11.50;99.90;;;;;;5055853;28;20060;-72
2022/10/15 05:51:34;;;;;;;110.13;42.65;;;11.50;99.90;;;;;;5055734;28;20045;-73
2022/10/15 05:54:00;;;;;;;92.95;43.63;;;11.40;99.90;;;;;;5055866;28;20045;-72
2022/10/15 05:56:26;;;;;;;108.45;45.67;;;11.30;99.90;;;;;;5054761;28;20041;-72
2022/10/15 05:58:51;;;;;;;93.38;46.70;;;11.40;99.90;;;;;;5055659;28;20327;-72
2022/10/15 06:01:17;;;;;;;82.47;41.83;;;11.40;99.90;;;;;;5055497;28;20148;-71
2022/10/15 06:03:43;;;;;;;88.82;46.40;;;11.40;99.90;;;;;;5036124;28;20079;-73
2022/10/15 06:06:21;;;;;;;108.47;44.22;;;11.40;99.90;;;;;;5054338;28;20044;-72
2022/10/15 06:08:47;;;;;;;90.55;45.40;;;11.40;99.90;;;;;;5044692;28;20045;-70
2022/10/15 06:11:13;;;;;;;102.43;45.65;;;11.50;99.90;;;;;;5055884;28;20428;-71
2022/10/15 06:13:41;;;;;;;90.70;43.53;;;11.40;99.90;;;;;;5055354;28;20095;-71
2022/10/15 06:16:07;;;;;;;90.53;42.60;;;11.50;99.90;;;;;;5055673;28;20051;-72
2022/10/15 06:18:33;;;;;;;93.55;44.55;;;11.40;99.90;;;;;;5055206;28;20056;-72
2022/10/15 06:20:58;;;;;;;115.55;49.25;;;11.50;99.90;;;;;;5055337;28;20049;-72
2022/10/15 06:23:24;;;;;;;110.65;49.08;;;11.60;99.90;;;;;;5054912;28;20052;-71
2022/10/15 06:25:50;;;;;;;89.30;45.28;;;11.50;99.90;;;;;;5055173;28;20440;-72
2022/10/15 06:28:16;;;;;;;120.03;51.65;;;11.50;99.90;;;;;;5055235;28;20124;-72
2022/10/15 06:30:42;;;;;;;96.60;47.47;;;11.50;99.90;;;;;;5055125;28;20131;-73
2022/10/15 06:33:08;;;;;;;96.47;48.42;;;11.60;99.90;;;;;;5055650;28;20472;-71
2022/10/15 06:35:34;;;;;;;92.53;48.10;;;11.60;99.90;;;;;;5054986;28;20057;-75
2022/10/15 06:38:03;;;;;;;129.13;51.80;;;11.60;99.90;;;;;;5054617;28;20049;-74
2022/10/15 06:40:30;;;;;;;110.35;49.75;;;11.70;99.90;;;;;;5054219;28;20458;-71
2022/10/15 06:43:11;;;;;;;93.65;45.75;;;11.70;99.90;;;;;;5054740;28;20068;-72
2022/10/15 06:45:39;;;;;;;87.82;44.97;;;11.70;99.90;;;;;;5054306;28;20409;-72
2022/10/15 06:48:05;;;;;;;97.05;47.95;;;11.80;99.90;;;;;;5054810;28;20084;-73
2022/10/15 06:50:33;;;;;;;94.88;46.97;;;11.80;99.90;;;;;;5054737;28;20049;-72
2022/10/15 06:52:59;;;;;;;91.75;45.42;;;11.80;99.90;;;;;;5054664;28;20044;-73
2022/10/15 06:55:25;;;;;;;104.82;48.97;;;11.80;99.90;;;;;;5053836;28;20041;-74
2022/10/15 06:57:50;;;;;;;98.97;48.35;;;12.10;99.90;;;;;;5054903;28;20155;-73
2022/10/15 07:00:16;;;;;;;109.13;46.97;;;11.90;99.90;;;;;;5054491;28;20142;-73
2022/10/15 07:02:42;;;;;;;85.45;43.97;;;11.90;99.90;;;;;;5054536;28;20402;-73
2022/10/15 07:05:08;;;;;;;101.22;48.22;;;11.90;99.90;;;;;;5054498;28;20132;-71
2022/10/15 07:07:34;;;;;;;86.57;45.75;;;12.00;99.90;;;;;;5054504;28;20051;-72
2022/10/15 07:09:59;;;;;;;90.95;45.55;;;12.00;99.90;;;;;;5054337;28;20120;-72
2022/10/15 07:12:25;;;;;;;86.63;42.95;;;12.00;99.90;;;;;;5054851;28;20052;-69
2022/10/15 07:14:51;;;;;;;108.45;50.28;;;12.10;99.90;;;;;;5053845;28;20052;-74
2022/10/15 07:17:17;;;;;;;84.72;44.85;;;12.10;99.90;;;;;;5054339;28;20487;-71
2022/10/15 07:19:43;;;;;;;79.72;42.08;;;12.20;99.90;;;;;;5037372;28;20044;-71
2022/10/15 07:22:09;;;;;;;80.18;43.03;;;12.20;99.90;;;;;;5054475;28;20110;-70
2022/10/15 07:24:35;;;;;;;101.47;45.47;;;12.30;99.90;;;;;;5036579;28;20068;-72
2022/10/15 07:27:01;;;;;;;94.25;45.22;;;12.30;99.90;;;;;;5054548;28;20045;-72
2022/10/15 07:29:27;;;;;;;84.60;45.05;;;12.40;99.90;;;;;;5052426;28;20488;-71
2022/10/15 07:31:52;;;;;;;73.18;40.25;;;12.50;99.90;;;;;;5052448;28;20085;-74
2022/10/15 07:34:18;;;;;;;86.28;41.80;;;12.50;99.90;;;;;;5038256;28;20401;-74
2022/10/15 07:36:44;;;;;;;84.70;44.50;;;12.60;99.90;;;;;;5033207;28;20084;-72
2022/10/15 07:39:09;;;;;;;82.80;44.53;;;12.60;99.90;;;;;;5040924;28;20053;-73
2022/10/15 07:41:35;;;;;;;74.03;41.20;;;12.70;99.90;;;;;;5040793;28;20068;-73
2022/10/15 07:44:01;;;;;;;76.55;41.25;;;12.80;99.90;;;;;;5054108;28;20048;-74
2022/10/15 07:46:27;;;;;;;69.53;40.15;;;12.80;99.90;;;;;;5053256;28;20052;-74
2022/10/15 07:48:52;;;;;;;64.45;36.35;;;12.80;99.90;;;;;;5036682;28;20049;-72
2022/10/15 07:51:18;;;;;;;66.13;38.90;;;12.90;99.90;;;;;;5035024;28;20049;-74
2022/10/15 07:53:46;;;;;;;74.68;42.97;;;12.80;99.90;;;;;;5037609;28;20064;-73
2022/10/15 07:56:13;;;;;;;63.72;36.15;;;12.90;99.90;;;;;;5037682;28;20053;-73
2022/10/15 07:58:39;;;;;;;71.57;40.65;;;12.90;99.90;;;;;;5038866;28;20046;-72
2022/10/15 08:01:07;;;;;;;65.85;36.22;;;12.90;99.90;;;;;;5057583;28;20071;-70
2022/10/15 08:03:32;;;;;;;58.80;35.17;;;12.90;99.90;;;;;;5056614;28;20103;-72
2022/10/15 08:06:03;;;;;;;60.22;36.65;;;13.00;99.90;;;;;;5046693;28;20435;-72
2022/10/15 08:08:29;;;;;;;58.35;35.88;;;13.00;99.90;;;;;;5037476;28;20108;-73
2022/10/15 08:10:55;;;;;;;59.75;36.60;;;13.10;99.90;;;;;;5037485;28;20057;-71
2022/10/15 08:13:21;;;;;;;65.00;38.38;;;13.10;99.90;;;;;;5039247;28;20073;-72
2022/10/15 08:15:47;;;;;;;69.13;38.83;;;13.10;99.90;;;;;;5052393;28;20045;-73
2022/10/15 08:18:12;;;;;;;59.60;36.33;;;13.20;99.90;;;;;;5056817;28;20041;-72
2022/10/15 08:20:38;;;;;;;63.25;37.92;;;13.20;99.90;;;;;;5057499;28;20127;-71
2022/10/15 08:23:05;;;;;;;60.30;36.30;;;13.30;99.90;;;;;;5057019;28;20053;-73
2022/10/15 08:25:33;;;;;;;56.85;36.10;;;13.50;99.90;;;;;;5057156;28;20041;-71
2022/10/15 08:27:59;;;;;;;58.22;38.47;;;13.50;99.90;;;;;;5057099;28;20044;-75
2022/10/15 08:30:25;;;;;;;67.40;37.88;;;13.70;99.90;;;;;;5039082;28;20536;-73
2022/10/15 08:32:50;;;;;;;60.50;36.85;;;13.80;99.90;;;;;;5050699;28;20049;-73
2022/10/15 08:35:16;;;;;;;57.42;36.40;;;13.90;99.90;;;;;;5056808;28;20132;-73
2022/10/15 08:37:41;;;;;;;61.25;36.22;;;14.00;99.90;;;;;;5056892;28;20052;-72
2022/10/15 08:40:09;;;;;;;62.58;41.67;;;14.00;99.90;;;;;;5056951;28;20055;-74
2022/10/15 08:42:40;;;;;;;56.92;34.17;;;14.00;99.90;;;;;;5056339;28;20063;-74
2022/10/15 08:45:20;;;;;;;61.30;37.63;;;14.00;99.90;;;;;;5053460;28;20124;-73
2022/10/15 08:47:58;;;;;;;54.67;34.90;;;14.10;99.90;;;;;;5056942;28;20044;-73
2022/10/15 08:50:33;;;;;;;47.95;32.47;;;14.20;99.90;;;;;;5038828;28;20057;-74
2022/10/15 08:52:59;;;;;;;49.35;33.67;;;14.20;99.90;;;;;;5056777;28;20056;-73
2022/10/15 08:55:32;;;;;;;47.75;33.00;;;14.20;99.90;;;;;;5056467;28;20473;-74
2022/10/15 08:58:15;;;;;;;54.00;38.05;;;14.20;99.90;;;;;;5056753;28;20052;-72
2022/10/15 09:00:52;;;;;;;49.45;34.53;;;14.10;99.90;;;;;;5056262;28;20079;-73
2022/10/15 09:03:32;;;;;;;44.83;31.25;;;13.90;99.90;;;;;;5056234;28;20071;-73
2022/10/15 09:06:16;;;;;;;44.22;31.23;;;13.90;99.90;;;;;;5056043;28;20064;-72
2022/10/15 09:08:55;;;;;;;47.70;32.72;;;13.90;99.90;;;;;;5048670;28;20389;-73
2022/10/15 09:11:39;;;;;;;52.35;34.10;;;13.90;99.90;;;;;;5036320;28;20057;-73
2022/10/15 09:14:14;;;;;;;51.97;33.97;;;14.10;99.90;;;;;;5042869;28;20115;-74
2022/10/15 09:16:43;;;;;;;52.08;33.42;;;14.20;99.90;;;;;;5047148;28;20449;-75
2022/10/15 09:19:21;;;;;;;48.42;33.80;;;14.30;99.90;;;;;;5056523;28;20362;-74
2022/10/15 09:21:48;;;;;;;46.35;30.27;;;14.30;99.90;;;;;;5056251;28;20187;-75
2022/10/15 09:24:26;;;;;;;45.35;30.63;;;14.30;99.90;;;;;;5056145;28;20481;-74
2022/10/15 09:27:21;;;;;;;46.13;34.70;;;14.40;99.90;;;;;;5056079;28;20047;-74
2022/10/15 09:29:55;;;;;;;46.08;31.00;;;14.50;99.90;;;;;;5055873;28;20053;-73
2022/10/15 09:32:45;;;;;;;42.78;30.70;;;14.50;99.90;;;;;;5037279;28;20099;-73
2022/10/15 09:35:28;;;;;;;45.45;32.30;;;14.50;99.90;;;;;;5047941;28;20099;-72
2022/10/15 09:38:22;;;;;;;43.60;29.75;;;14.40;99.90;;;;;;5036096;28;20049;-74
2022/10/15 09:40:53;;;;;;;39.50;28.27;;;14.40;99.90;;;;;;5035741;28;20061;-72
2022/10/15 09:43:29;;;;;;;45.10;30.90;;;14.40;99.90;;;;;;5035679;28;20127;-73
2022/10/15 09:45:55;;;;;;;40.67;29.77;;;14.30;99.90;;;;;;5035593;28;20424;-73
2022/10/15 09:48:22;;;;;;;42.38;30.17;;;14.30;99.90;;;;;;5042435;28;20120;-75
2022/10/15 09:51:05;;;;;;;48.60;32.72;;;14.10;99.90;;;;;;5055311;28;20052;-74
2022/10/15 09:53:46;;;;;;;41.78;29.38;;;14.10;99.90;;;;;;5055639;28;20079;-74
2022/10/15 09:56:21;;;;;;;44.03;30.88;;;14.10;99.90;;;;;;5047778;28;20053;-73
2022/10/15 09:58:54;;;;;;;40.60;27.73;;;14.10;99.90;;;;;;5034742;28;20070;-73
2022/10/15 10:01:28;;;;;;;40.17;25.48;;;13.90;99.90;;;;;;5034167;28;20052;-74
2022/10/15 10:04:15;;;;;;;38.78;25.00;;;14.00;99.90;;;;;;5049337;28;20060;-73
2022/10/15 10:06:45;;;;;;;39.42;24.88;;;14.10;99.90;;;;;;5054735;28;20049;-74
2022/10/15 10:09:20;;;;;;;39.80;25.77;;;14.00;99.90;;;;;;5040282;28;20059;-73
2022/10/15 10:11:54;;;;;;;36.13;24.60;;;14.10;99.90;;;;;;5055310;28;20148;-73
2022/10/15 10:14:25;;;;;;;38.10;23.70;;;13.90;99.90;;;;;;5054847;28;20044;-73
2022/10/15 10:17:15;;;;;;;34.03;22.63;;;14.00;99.90;;;;;;5055003;28;20041;-73
2022/10/15 10:19:42;;;;;;;33.15;20.67;;;13.90;99.90;;;;;;5054890;28;20119;-73
2022/10/15 10:22:19;;;;;;;36.65;21.13;;;13.90;99.90;;;;;;5055362;28;20372;-74
2022/10/15 10:24:46;;;;;;;34.20;22.27;;;14.10;99.90;;;;;;5037002;28;20064;-73
2022/10/15 10:27:26;;;;;;;30.83;19.63;;;13.90;99.90;;;;;;5034017;28;20034;-73
2022/10/15 10:30:00;;;;;;;29.83;19.15;;;14.00;99.90;;;;;;5034705;28;20053;-73
2022/10/15 10:32:30;;;;;;;30.40;18.17;;;13.90;99.90;;;;;;5035177;28;20037;-73
2022/10/15 10:34:56;;;;;;;31.60;21.13;;;14.00;99.90;;;;;;5053808;28;20056;-73
2022/10/15 10:37:23;;;;;;;34.63;20.23;;;14.00;99.90;;;;;;5054841;28;20060;-74
2022/10/15 10:39:54;;;;;;;30.02;20.13;;;14.00;99.90;;;;;;5054136;28;20110;-72
2022/10/15 10:42:22;;;;;;;29.73;19.30;;;14.00;99.90;;;;;;5042173;28;20347;-75
2022/10/15 10:44:48;;;;;;;28.75;19.75;;;14.10;99.90;;;;;;5034750;28;20050;-73
2022/10/15 10:47:22;;;;;;;28.40;19.13;;;14.10;99.90;;;;;;5035149;28;20081;-73
2022/10/15 10:49:56;;;;;;;29.15;18.52;;;14.20;99.90;;;;;;5035055;28;20377;-75
2022/10/15 10:52:31;;;;;;;29.25;19.50;;;14.30;99.90;;;;;;5034534;28;20117;-71
2022/10/15 10:55:05;;;;;;;26.48;18.00;;;14.40;99.90;;;;;;5038175;28;20483;-75
2022/10/15 10:57:42;;;;;;;28.75;17.27;;;14.50;99.90;;;;;;5034790;28;20041;-75
2022/10/15 11:00:16;;;;;;;27.33;18.52;;;14.60;99.90;;;;;;5034661;28;20056;-73
2022/10/15 11:02:42;;;;;;;28.67;18.58;;;14.70;99.90;;;;;;5034578;28;20120;-72
2022/10/15 11:05:10;;;;;;;27.63;19.52;;;14.70;99.90;;;;;;5034493;28;20049;-74
2022/10/15 11:07:44;;;;;;;27.55;18.58;;;14.80;99.90;;;;;;5034954;28;20378;-70
2022/10/15 11:10:15;;;;;;;30.67;19.90;;;14.80;99.90;;;;;;5051972;28;20067;-73
2022/10/15 11:13:09;;;;;;;32.20;19.25;;;14.90;99.90;;;;;;5054480;28;20041;-73
2022/10/15 11:15:42;;;;;;;;;;;15.00;99.90;;;;;;5054984;28;20060;-72
2022/10/15 11:18:30;;;;;;;24.90;17.83;;;15.20;99.90;;;;;;5054513;28;19950;-72
2022/10/15 11:21:02;;;;;;;24.30;16.60;;;15.20;99.90;;;;;;5054525;28;20041;-71
2022/10/15 11:23:46;;;;;;;30.48;19.17;;;15.30;99.90;;;;;;5053941;28;20470;-73
2022/10/15 11:26:49;;;;;;;20.38;15.18;;;15.30;99.90;;;;;;5054852;28;20124;-73
2022/10/15 11:29:27;;;;;;;23.53;17.10;;;15.50;99.90;;;;;;5058399;28;20187;-73
2022/10/15 11:32:03;;;;;;;21.52;15.73;;;15.50;99.90;;;;;;5040197;28;20302;-73
2022/10/15 11:34:35;;;;;;;20.42;15.13;;;15.60;99.90;;;;;;5053449;28;20472;-74
2022/10/15 11:37:14;;;;;;;25.23;16.15;;;15.50;99.90;;;;;;5038358;28;20053;-73
2022/10/15 11:39:42;;;;;;;27.10;16.40;;;15.50;99.90;;;;;;5054876;28;20468;-74
2022/10/15 11:42:22;;;;;;;23.48;15.75;;;15.50;99.90;;;;;;5057867;28;20049;-74
2022/10/15 11:44:54;;;;;;;22.77;14.85;;;15.60;99.90;;;;;;5057883;28;20112;-74
2022/10/15 11:48:01;;;;;;;19.17;13.90;;;15.40;99.90;;;;;;5040265;28;20464;-73
2022/10/15 11:50:59;;;;;;;21.67;14.40;;;15.50;99.90;;;;;;5026599;28;20144;-74
2022/10/15 11:53:37;;;;;;;19.80;14.60;;;15.50;99.90;;;;;;5039897;28;20044;-73
2022/10/15 11:56:13;;;;;;;21.92;15.35;;;15.40;99.90;;;;;;5051905;28;20041;-73
2022/10/15 11:59:12;;;;;;;18.98;12.82;;;15.50;99.90;;;;;;5038471;28;20041;-73
2022/10/15 12:02:10;;;;;;;17.48;13.45;;;15.40;99.90;;;;;;5042511;28;20061;-70
2022/10/15 12:04:49;;;;;;;18.60;13.75;;;15.40;99.90;;;;;;5019236;28;20583;-72
2022/10/15 12:07:40;;;;;;;23.10;15.50;;;15.50;99.90;;;;;;5077830;28;20037;-72
2022/10/15 12:10:12;;;;;;;19.92;14.65;;;15.50;99.90;;;;;;5060711;28;20095;-71
2022/10/15 12:12:49;;;;;;;21.55;14.80;;;15.50;99.90;;;;;;5059763;28;20048;-72
2022/10/15 12:15:21;;;;;;;17.58;13.77;;;15.60;99.90;;;;;;5077804;28;20045;-70
2022/10/15 12:17:55;;;;;;;19.50;15.07;;;15.60;99.90;;;;;;5057324;28;20139;-73
2022/10/15 12:20:22;;;;;;;17.48;13.27;;;15.60;99.90;;;;;;5039144;28;20429;-74
2022/10/15 12:22:56;;;;;;;20.67;14.07;;;15.70;99.90;;;;;;5039619;28;20107;-71
2022/10/15 12:25:33;;;;;;;19.05;14.88;;;15.80;99.90;;;;;;5057610;28;20041;-72
2022/10/15 12:28:07;;;;;;;20.17;13.82;;;15.90;99.90;;;;;;5047188;28;20045;-74
2022/10/15 12:30:35;;;;;;;19.88;13.52;;;15.80;99.90;;;;;;5046408;28;20207;-72
2022/10/15 12:33:03;;;;;;;21.95;15.73;;;16.00;99.90;;;;;;5057312;28;20110;-74
2022/10/15 12:35:37;;;;;;;19.58;13.43;;;15.90;99.90;;;;;;5057045;28;20088;-72
2022/10/15 12:38:30;;;;;;;21.45;14.98;;;15.80;99.90;;;;;;5054567;28;20040;-74
2022/10/15 12:41:03;;;;;;;16.20;13.52;;;15.80;99.90;;;;;;5053770;28;20049;-73
2022/10/15 12:43:31;;;;;;;18.13;14.15;;;15.90;99.90;;;;;;5050680;28;20049;-75